createdAt,value
2022-09-14T00:00:13.958Z,152.54
2022-09-14T00:01:21.145Z,153.52
2022-09-14T00:01:46.576Z,164.27
2022-09-14T00:02:29.733Z,182.85
2022-09-14T00:03:12.417Z,178.94
2022-09-14T00:03:54.087Z,170.14
2022-09-14T00:04:46.584Z,178.94
2022-09-14T00:05:20.966Z,180.90
2022-09-14T00:06:06.753Z,194.59
2022-09-14T00:06:58.657Z,170.14
2022-09-14T00:08:37.882Z,193.61
2022-09-14T00:09:15.439Z,158.41
2022-09-14T00:09:57.620Z,174.05
2022-09-14T00:10:36.984Z,180.90
2022-09-14T00:11:48.248Z,190.67
2022-09-14T00:12:20.143Z,177.96
2022-09-14T00:12:55.554Z,174.05
2022-09-14T00:15:26.467Z,171.56
2022-09-14T00:15:59.427Z,156.86
2022-09-14T00:16:49.502Z,184.81
2022-09-14T00:17:24.809Z,187.74
2022-09-14T00:18:12.985Z,185.79
2022-09-14T00:19:02.065Z,161.34
2022-09-14T00:19:37.851Z,173.07
2022-09-14T00:21:11.562Z,173.52
2022-09-14T00:21:52.802Z,162.74
2022-09-14T00:22:37.684Z,148.03
2022-09-14T00:23:33.475Z,159.80
2022-09-14T00:24:14.848Z,167.64
2022-09-14T00:24:54.790Z,170.58
2022-09-14T00:25:39.326Z,174.50
2022-09-14T00:26:31.551Z,197.05
2022-09-14T00:27:13.444Z,193.13
2022-09-14T00:27:54.856Z,207.83
2022-09-14T00:28:38.121Z,214.70
2022-09-14T00:29:30.243Z,204.89
2022-09-14T00:30:09.871Z,181.36
2022-09-14T00:30:53.219Z,157.84
2022-09-14T00:31:39.628Z,141.17
2022-09-14T00:32:23.721Z,165.68
2022-09-14T00:33:12.654Z,143.13
2022-09-14T00:33:57.100Z,163.72
2022-09-14T00:34:39.499Z,145.09
2022-09-14T00:35:23.729Z,169.60
2022-09-14T00:36:53.744Z,163.72
2022-09-14T00:37:40.975Z,143.13
2022-09-14T00:38:23.766Z,137.25
2022-09-14T00:39:10.953Z,146.07
2022-09-14T00:40:43.832Z,151.95
2022-09-14T00:41:25.003Z,158.82
2022-09-14T00:42:14.085Z,152.93
2022-09-14T00:42:53.792Z,141.17
2022-09-14T00:43:38.576Z,152.93
2022-09-14T00:44:25.148Z,156.86
2022-09-14T00:45:54.919Z,149.01
2022-09-14T00:46:41.395Z,140.19
2022-09-14T00:47:31.287Z,161.76
2022-09-14T00:48:10.371Z,163.72
2022-09-14T00:48:56.704Z,153.91
2022-09-14T00:50:26.120Z,149.01
2022-09-14T00:51:14.798Z,155.88
2022-09-14T00:51:59.370Z,164.70
2022-09-14T00:52:40.709Z,172.54
2022-09-14T00:53:31.631Z,152.93
2022-09-14T00:54:30.103Z,158.82
2022-09-14T00:55:07.388Z,127.45
2022-09-14T00:55:39.566Z,131.37
2022-09-14T00:56:24.518Z,131.37
2022-09-14T00:57:09.386Z,125.48
2022-09-14T00:58:46.421Z,152.93
2022-09-14T00:59:39.662Z,151.95
2022-09-14T01:00:10.356Z,149.99
2022-09-14T01:00:55.496Z,159.80
2022-09-14T01:01:39.187Z,140.19
2022-09-14T01:02:26.039Z,150.97
2022-09-14T01:03:14.599Z,168.62
2022-09-14T01:03:57.723Z,166.66
2022-09-14T01:04:40.337Z,156.86
2022-09-14T01:05:28.655Z,149.01
2022-09-14T01:06:20.697Z,159.80
2022-09-14T01:07:13.404Z,146.07
2022-09-14T01:07:44.222Z,146.07
2022-09-14T01:08:24.852Z,165.68
2022-09-14T01:09:10.448Z,144.11
2022-09-14T01:09:59.466Z,139.21
2022-09-14T01:10:42.987Z,167.64
2022-09-14T01:11:26.901Z,159.80
2022-09-14T01:12:17.437Z,156.86
2022-09-14T01:12:58.801Z,153.91
2022-09-14T01:13:42.216Z,157.84
2022-09-14T01:14:34.860Z,171.56
2022-09-14T01:15:16.308Z,157.84
2022-09-14T01:15:59.755Z,145.09
2022-09-14T01:16:40.674Z,168.62
2022-09-14T01:17:28.535Z,154.90
2022-09-14T01:18:13.091Z,161.76
2022-09-14T01:18:58.944Z,155.88
2022-09-14T01:20:27.688Z,153.91
2022-09-14T01:21:23.393Z,166.66
2022-09-14T01:22:01.117Z,145.09
2022-09-14T01:23:26.979Z,151.95
2022-09-14T01:25:48.579Z,137.25
2022-09-14T01:26:25.890Z,156.86
2022-09-14T01:27:58.969Z,158.82
2022-09-14T01:29:03.988Z,152.93
2022-09-14T01:29:28.449Z,164.70
2022-09-14T01:30:16.342Z,141.17
2022-09-14T01:31:04.146Z,142.15
2022-09-14T01:31:41.665Z,140.19
2022-09-14T01:32:28.320Z,154.90
2022-09-14T01:33:12.511Z,156.86
2022-09-14T01:34:06.072Z,159.80
2022-09-14T01:34:50.045Z,156.86
2022-09-14T01:35:28.502Z,149.99
2022-09-14T01:36:18.287Z,159.80
2022-09-14T01:36:58.325Z,143.13
2022-09-14T01:37:48.121Z,149.99
2022-09-14T01:38:26.886Z,158.82
2022-09-14T01:39:16.983Z,149.99
2022-09-14T01:40:01.894Z,149.01
2022-09-14T01:40:46.971Z,142.15
2022-09-14T01:41:40.109Z,154.90
2022-09-14T01:42:16.305Z,150.97
2022-09-14T01:43:04.025Z,156.86
2022-09-14T01:43:46.282Z,149.01
2022-09-14T01:44:27.960Z,148.03
2022-09-14T01:45:15.347Z,134.31
2022-09-14T01:45:56.669Z,148.03
2022-09-14T01:46:41.846Z,162.74
2022-09-14T01:47:34.166Z,140.19
2022-09-14T01:48:18.578Z,135.29
2022-09-14T01:49:02.326Z,118.62
2022-09-14T01:49:42.606Z,124.50
2022-09-14T01:50:26.570Z,155.88
2022-09-14T01:51:11.466Z,161.76
2022-09-14T01:52:04.092Z,164.70
2022-09-14T01:52:42.933Z,167.64
2022-09-14T01:53:26.723Z,143.13
2022-09-14T01:54:18.540Z,117.64
2022-09-14T01:55:03.396Z,124.50
2022-09-14T01:55:48.382Z,125.48
2022-09-14T01:56:26.539Z,127.45
2022-09-14T01:57:16.538Z,151.95
2022-09-14T01:57:56.857Z,146.07
2022-09-14T01:58:44.478Z,138.23
2022-09-14T01:59:31.279Z,148.03
2022-09-14T02:00:12.030Z,131.37
2022-09-14T02:00:58.633Z,155.88
2022-09-14T02:01:46.473Z,135.29
2022-09-14T02:02:30.855Z,181.36
2022-09-14T02:03:18.408Z,159.80
2022-09-14T02:03:59.337Z,149.01
2022-09-14T02:04:45.147Z,150.97
2022-09-14T02:05:32.256Z,146.07
2022-09-14T02:06:14.839Z,135.29
2022-09-14T02:07:01.477Z,144.11
2022-09-14T02:07:48.163Z,137.25
2022-09-14T02:08:31.552Z,130.39
2022-09-14T02:09:16.098Z,127.45
2022-09-14T02:10:00.540Z,125.48
2022-09-14T02:10:43.366Z,133.33
2022-09-14T02:11:33.101Z,131.37
2022-09-14T02:12:14.608Z,128.43
2022-09-14T02:13:08.887Z,131.37
2022-09-14T02:13:43.958Z,116.66
2022-09-14T02:14:30.983Z,112.74
2022-09-14T02:15:14.750Z,124.50
2022-09-14T02:16:05.108Z,140.19
2022-09-14T02:16:43.027Z,77.45
2022-09-14T02:17:27.866Z,142.15
2022-09-14T02:18:17.291Z,121.56
2022-09-14T02:19:01.869Z,163.72
2022-09-14T02:19:47.419Z,142.15
2022-09-14T02:20:30.155Z,169.60
2022-09-14T02:21:16.585Z,175.48
2022-09-14T02:22:01.461Z,171.56
2022-09-14T02:22:43.316Z,146.07
2022-09-14T02:23:35.178Z,157.84
2022-09-14T02:24:13.905Z,136.27
2022-09-14T02:25:01.103Z,148.03
2022-09-14T02:25:44.400Z,119.60
2022-09-14T02:26:29.759Z,110.78
2022-09-14T02:27:21.392Z,105.88
2022-09-14T02:27:58.709Z,101.96
2022-09-14T02:28:51.272Z,128.43
2022-09-14T02:29:30.872Z,149.01
2022-09-14T02:30:14.985Z,129.41
2022-09-14T02:31:00.663Z,127.45
2022-09-14T02:31:44.207Z,137.25
2022-09-14T02:32:29.049Z,114.70
2022-09-14T02:33:14.203Z,110.78
2022-09-14T02:33:58.953Z,118.62
2022-09-14T02:34:44.012Z,116.66
2022-09-14T02:35:30.243Z,103.92
2022-09-14T02:36:14.560Z,198.03
2022-09-14T02:36:59.331Z,111.76
2022-09-14T02:37:44.341Z,185.29
2022-09-14T02:38:29.427Z,145.09
2022-09-14T02:39:14.431Z,136.27
2022-09-14T02:39:59.629Z,87.25
2022-09-14T02:40:44.153Z,111.76
2022-09-14T02:41:29.308Z,128.43
2022-09-14T02:42:14.481Z,101.96
2022-09-14T02:42:59.426Z,117.64
2022-09-14T02:43:44.520Z,116.66
2022-09-14T02:44:29.546Z,114.70
2022-09-14T02:45:14.704Z,73.53
2022-09-14T02:45:59.944Z,108.82
2022-09-14T02:46:45.581Z,124.50
2022-09-14T02:47:29.784Z,111.76
2022-09-14T02:48:14.923Z,106.86
2022-09-14T02:48:59.880Z,118.62
2022-09-14T02:49:45.139Z,125.48
2022-09-14T02:50:29.887Z,136.27
2022-09-14T02:51:15.148Z,141.17
2022-09-14T02:52:00.309Z,133.33
2022-09-14T02:52:45.572Z,138.23
2022-09-14T02:53:30.228Z,118.62
2022-09-14T02:54:15.420Z,140.19
2022-09-14T02:55:00.352Z,138.23
2022-09-14T02:55:45.489Z,121.56
2022-09-14T02:56:30.584Z,114.70
2022-09-14T02:57:15.707Z,123.52
2022-09-14T02:58:00.707Z,124.50
2022-09-14T02:58:45.510Z,128.43
2022-09-14T02:59:30.677Z,127.45
2022-09-14T03:00:15.723Z,127.45
2022-09-14T03:01:00.798Z,120.58
2022-09-14T03:01:45.997Z,121.56
2022-09-14T03:02:31.819Z,124.50
2022-09-14T03:03:15.945Z,100.98
2022-09-14T03:04:00.905Z,119.60
2022-09-14T03:04:45.959Z,175.48
2022-09-14T03:05:30.913Z,242.15
2022-09-14T03:06:16.074Z,213.72
2022-09-14T03:07:01.252Z,174.50
2022-09-14T03:07:46.471Z,132.35
2022-09-14T03:08:34.189Z,123.52
2022-09-14T03:09:16.677Z,136.27
2022-09-14T03:10:01.372Z,100.00
2022-09-14T03:10:46.537Z,106.86
2022-09-14T03:11:31.718Z,159.80
2022-09-14T03:12:16.749Z,193.13
2022-09-14T03:13:01.791Z,223.52
2022-09-14T03:13:46.737Z,217.64
2022-09-14T03:14:31.902Z,187.25
2022-09-14T03:15:16.971Z,219.60
2022-09-14T03:16:01.959Z,179.40
2022-09-14T03:16:46.858Z,162.74
2022-09-14T03:17:31.919Z,193.13
2022-09-14T03:18:17.093Z,204.89
2022-09-14T03:19:01.718Z,192.15
2022-09-14T03:19:47.005Z,165.68
2022-09-14T03:20:32.150Z,222.54
2022-09-14T03:21:17.009Z,199.99
2022-09-14T03:22:02.103Z,206.85
2022-09-14T03:22:47.045Z,194.11
2022-09-14T03:23:32.165Z,186.27
2022-09-14T03:24:17.330Z,188.23
2022-09-14T03:25:02.439Z,219.60
2022-09-14T03:25:47.437Z,194.11
2022-09-14T03:26:32.600Z,202.93
2022-09-14T03:27:17.610Z,177.44
2022-09-14T03:28:02.611Z,200.97
2022-09-14T03:28:47.578Z,196.07
2022-09-14T03:29:32.514Z,191.17
2022-09-14T03:30:17.723Z,166.66
2022-09-14T03:31:03.107Z,167.64
2022-09-14T03:31:48.113Z,204.89
2022-09-14T03:32:32.941Z,175.48
2022-09-14T03:33:18.228Z,157.84
2022-09-14T03:34:03.159Z,192.15
2022-09-14T03:34:48.251Z,192.15
2022-09-14T03:35:33.373Z,190.19
2022-09-14T03:36:18.130Z,211.76
2022-09-14T03:37:03.313Z,209.79
2022-09-14T03:37:48.546Z,226.46
2022-09-14T03:38:33.712Z,189.21
2022-09-14T03:39:18.691Z,198.03
2022-09-14T03:40:03.713Z,178.42
2022-09-14T03:40:48.991Z,181.36
2022-09-14T03:41:33.787Z,174.50
2022-09-14T03:42:18.690Z,194.11
2022-09-14T03:43:04.358Z,180.38
2022-09-14T03:43:49.756Z,172.54
2022-09-14T03:44:33.847Z,180.38
2022-09-14T03:45:19.034Z,176.46
2022-09-14T03:46:03.964Z,183.33
2022-09-14T03:46:48.970Z,209.79
2022-09-14T03:47:33.971Z,209.79
2022-09-14T03:48:18.927Z,189.21
2022-09-14T03:49:04.088Z,208.81
2022-09-14T03:49:49.340Z,218.62
2022-09-14T03:50:34.195Z,206.85
2022-09-14T03:51:19.257Z,221.56
2022-09-14T03:52:04.371Z,216.66
2022-09-14T03:52:49.571Z,211.76
2022-09-14T03:53:34.326Z,192.15
2022-09-14T03:54:19.378Z,193.13
2022-09-14T03:55:04.433Z,233.32
2022-09-14T03:55:49.590Z,218.62
2022-09-14T03:56:34.648Z,226.46
2022-09-14T03:57:19.501Z,164.70
2022-09-14T03:58:04.885Z,229.40
2022-09-14T03:58:49.971Z,229.40
2022-09-14T03:59:34.971Z,184.31
2022-09-14T04:00:20.068Z,227.44
2022-09-14T04:01:04.990Z,162.74
2022-09-14T04:01:50.117Z,117.64
2022-09-14T04:02:34.939Z,102.94
2022-09-14T04:03:20.189Z,113.72
2022-09-14T04:04:05.156Z,110.78
2022-09-14T04:04:50.167Z,86.27
2022-09-14T04:05:35.228Z,126.46
2022-09-14T04:06:20.175Z,132.35
2022-09-14T04:07:05.251Z,145.09
2022-09-14T04:07:50.390Z,149.01
2022-09-14T04:08:35.447Z,156.86
2022-09-14T04:09:20.612Z,158.82
2022-09-14T04:10:05.676Z,149.01
2022-09-14T04:10:50.414Z,153.91
2022-09-14T04:11:35.475Z,189.21
2022-09-14T04:12:21.146Z,155.88
2022-09-14T04:13:05.802Z,113.72
2022-09-14T04:13:50.701Z,131.37
2022-09-14T04:14:35.287Z,145.09
2022-09-14T04:15:20.982Z,152.93
2022-09-14T04:16:05.912Z,165.68
2022-09-14T04:16:50.787Z,144.11
2022-09-14T04:17:35.637Z,134.31
2022-09-14T04:18:21.190Z,146.07
2022-09-14T04:19:06.152Z,154.90
2022-09-14T04:19:51.409Z,143.13
2022-09-14T04:20:36.174Z,158.82
2022-09-14T04:21:21.023Z,138.23
2022-09-14T04:22:06.155Z,164.70
2022-09-14T04:22:51.427Z,158.82
2022-09-14T04:23:46.152Z,129.41
2022-09-14T04:24:21.755Z,150.97
2022-09-14T04:25:07.729Z,140.19
2022-09-14T04:25:55.640Z,126.46
2022-09-14T04:26:38.240Z,153.91
2022-09-14T04:27:23.816Z,150.97
2022-09-14T04:28:20.135Z,148.03
2022-09-14T04:28:54.965Z,152.93
2022-09-14T04:29:40.717Z,162.74
2022-09-14T04:30:25.749Z,167.64
2022-09-14T04:31:08.345Z,143.13
2022-09-14T04:31:52.955Z,151.95
2022-09-14T04:32:38.320Z,149.01
2022-09-14T04:33:22.176Z,160.78
2022-09-14T04:34:09.722Z,163.72
2022-09-14T04:34:55.370Z,166.66
2022-09-14T04:35:53.660Z,160.78
2022-09-14T04:36:27.344Z,160.78
2022-09-14T04:37:07.286Z,138.23
2022-09-14T04:37:53.532Z,126.46
2022-09-14T04:38:41.157Z,149.01
2022-09-14T04:39:31.882Z,112.74
2022-09-14T04:40:09.134Z,171.56
2022-09-14T04:40:54.948Z,135.29
2022-09-14T04:41:38.630Z,161.76
2022-09-14T04:42:26.909Z,172.54
2022-09-14T04:43:12.991Z,173.52
2022-09-14T04:44:06.318Z,169.60
2022-09-14T04:44:41.558Z,195.09
2022-09-14T04:45:23.271Z,181.36
2022-09-14T04:46:08.066Z,175.48
2022-09-14T04:46:54.524Z,198.03
2022-09-14T04:47:42.279Z,196.07
2022-09-14T04:48:26.696Z,190.19
2022-09-14T04:49:09.525Z,169.60
2022-09-14T04:49:54.540Z,191.17
2022-09-14T04:50:38.532Z,184.31
2022-09-14T04:51:23.602Z,174.50
2022-09-14T04:52:11.662Z,177.44
2022-09-14T04:52:53.295Z,180.38
2022-09-14T04:53:40.043Z,156.86
2022-09-14T04:54:23.715Z,158.82
2022-09-14T04:55:08.815Z,166.66
2022-09-14T04:55:57.951Z,180.38
2022-09-14T04:56:38.676Z,181.36
2022-09-14T04:57:23.824Z,182.34
2022-09-14T04:58:08.760Z,165.68
2022-09-14T04:58:53.823Z,179.40
2022-09-14T04:59:38.996Z,177.44
2022-09-14T05:00:24.139Z,179.40
2022-09-14T05:01:08.949Z,181.36
2022-09-14T05:01:54.347Z,150.97
2022-09-14T05:02:39.277Z,190.19
2022-09-14T05:03:24.160Z,188.23
2022-09-14T05:04:09.391Z,167.64
2022-09-14T05:04:55.912Z,200.97
2022-09-14T05:05:42.991Z,158.82
2022-09-14T05:06:25.342Z,168.62
2022-09-14T05:07:09.697Z,170.58
2022-09-14T05:07:55.330Z,174.50
2022-09-14T05:08:39.658Z,162.74
2022-09-14T05:09:25.788Z,184.31
2022-09-14T05:10:11.531Z,169.60
2022-09-14T05:10:55.859Z,185.29
2022-09-14T05:11:39.684Z,174.50
2022-09-14T05:12:24.839Z,193.13
2022-09-14T05:13:09.960Z,185.29
2022-09-14T05:13:55.011Z,194.11
2022-09-14T05:14:41.856Z,160.78
2022-09-14T05:15:27.057Z,172.54
2022-09-14T05:16:10.004Z,176.46
2022-09-14T05:16:54.899Z,171.56
2022-09-14T05:17:40.127Z,172.54
2022-09-14T05:18:25.289Z,158.82
2022-09-14T05:19:11.690Z,174.50
2022-09-14T05:19:57.447Z,172.54
2022-09-14T05:20:41.385Z,170.58
2022-09-14T05:21:29.707Z,152.93
2022-09-14T05:22:10.794Z,157.84
2022-09-14T05:22:57.236Z,169.60
2022-09-14T05:23:40.579Z,165.68
2022-09-14T05:24:27.038Z,177.44
2022-09-14T05:25:11.952Z,158.82
2022-09-14T05:25:55.967Z,175.48
2022-09-14T05:26:41.960Z,189.21
2022-09-14T05:27:25.862Z,190.19
2022-09-14T05:28:11.182Z,195.09
2022-09-14T05:28:55.938Z,184.31
2022-09-14T05:29:41.169Z,174.50
2022-09-14T05:30:28.008Z,187.25
2022-09-14T05:31:12.929Z,182.34
2022-09-14T05:32:00.677Z,180.38
2022-09-14T05:32:43.949Z,171.56
2022-09-14T05:33:37.240Z,182.34
2022-09-14T05:34:14.034Z,171.56
2022-09-14T05:35:01.341Z,179.40
2022-09-14T05:36:28.429Z,184.31
2022-09-14T05:37:13.668Z,181.36
2022-09-14T05:38:00.767Z,167.64
2022-09-14T05:39:28.509Z,178.42
2022-09-14T05:40:15.296Z,176.46
2022-09-14T05:41:05.333Z,186.27
2022-09-14T05:42:06.619Z,175.48
2022-09-14T05:42:30.280Z,173.52
2022-09-14T05:43:15.730Z,175.48
2022-09-14T05:43:59.883Z,174.50
2022-09-14T05:44:47.000Z,175.48
2022-09-14T05:45:29.478Z,169.60
2022-09-14T05:46:15.641Z,174.50
2022-09-14T05:47:10.333Z,193.13
2022-09-14T05:47:46.000Z,168.62
2022-09-14T05:48:28.202Z,178.42
2022-09-14T05:49:14.450Z,174.50
2022-09-14T05:50:00.064Z,176.46
2022-09-14T05:50:47.155Z,176.46
2022-09-14T05:51:38.830Z,190.19
2022-09-14T05:52:16.009Z,178.42
2022-09-14T05:53:04.951Z,176.46
2022-09-14T05:53:45.732Z,150.97
2022-09-14T05:54:31.452Z,182.34
2022-09-14T05:55:16.228Z,173.52
2022-09-14T05:56:01.905Z,178.42
2022-09-14T05:56:44.703Z,192.15
2022-09-14T05:57:40.241Z,185.29
2022-09-14T05:58:17.429Z,162.74
2022-09-14T05:59:00.053Z,188.23
2022-09-14T05:59:46.266Z,173.52
2022-09-14T06:01:22.239Z,174.50
2022-09-14T06:02:01.200Z,172.54
2022-09-14T06:02:50.330Z,167.64
2022-09-14T06:03:33.584Z,192.15
2022-09-14T06:04:26.944Z,172.54
2022-09-14T06:05:05.633Z,161.76
2022-09-14T06:05:47.264Z,183.33
2022-09-14T06:06:32.480Z,171.56
2022-09-14T06:07:19.311Z,167.64
2022-09-14T06:08:01.693Z,175.48
2022-09-14T06:08:51.066Z,167.64
2022-09-14T06:09:36.702Z,178.42
2022-09-14T06:10:24.114Z,181.36
2022-09-14T06:11:03.617Z,178.42
2022-09-14T06:11:45.668Z,192.15
2022-09-14T06:12:32.474Z,164.70
2022-09-14T06:13:17.552Z,172.54
2022-09-14T06:14:02.136Z,175.48
2022-09-14T06:14:50.053Z,188.23
2022-09-14T06:15:31.942Z,184.31
2022-09-14T06:16:18.523Z,175.27
2022-09-14T06:17:04.764Z,177.44
2022-09-14T06:17:46.798Z,167.64
2022-09-14T06:18:33.151Z,169.60
2022-09-14T06:19:28.790Z,171.56
2022-09-14T06:20:04.915Z,184.31
2022-09-14T06:20:47.323Z,184.31
2022-09-14T06:21:31.025Z,187.25
2022-09-14T06:22:16.746Z,153.91
2022-09-14T06:23:01.370Z,167.64
2022-09-14T06:23:52.445Z,167.64
2022-09-14T06:24:31.893Z,166.66
2022-09-14T06:25:17.268Z,177.44
2022-09-14T06:26:01.871Z,169.60
2022-09-14T06:26:47.402Z,174.50
2022-09-14T06:27:33.629Z,176.46
2022-09-14T06:28:17.602Z,168.62
2022-09-14T06:29:06.099Z,171.56
2022-09-14T06:29:46.445Z,185.29
2022-09-14T06:30:39.256Z,179.21
2022-09-14T06:31:24.431Z,203.91
2022-09-14T06:32:09.612Z,166.66
2022-09-14T06:32:48.432Z,176.46
2022-09-14T06:33:32.446Z,163.72
2022-09-14T06:34:20.843Z,172.54
2022-09-14T06:35:03.155Z,167.64
2022-09-14T06:35:53.888Z,158.82
2022-09-14T06:36:35.251Z,159.52
2022-09-14T06:37:17.782Z,167.39
2022-09-14T06:38:13.462Z,167.64
2022-09-14T06:38:47.769Z,168.38
2022-09-14T06:39:32.119Z,170.58
2022-09-14T06:41:05.827Z,168.38
2022-09-14T06:41:48.303Z,172.32
2022-09-14T06:42:38.898Z,154.90
2022-09-14T06:43:18.164Z,137.25
2022-09-14T06:43:38.892Z,160.78
2022-09-14T06:44:59.887Z,158.53
2022-09-14T06:45:33.756Z,169.60
2022-09-14T06:46:28.125Z,150.97
2022-09-14T06:46:47.402Z,155.58
2022-09-14T06:47:07.494Z,156.56
2022-09-14T06:48:01.158Z,156.86
2022-09-14T06:48:37.441Z,145.09
2022-09-14T06:49:18.038Z,146.07
2022-09-14T06:50:10.198Z,134.90
2022-09-14T06:51:00.546Z,167.39
2022-09-14T06:51:36.304Z,166.41
2022-09-14T06:52:20.647Z,172.32
2022-09-14T06:53:04.766Z,173.30
2022-09-14T06:53:48.657Z,166.41
2022-09-14T06:54:56.686Z,161.49
2022-09-14T06:55:21.604Z,168.38
2022-09-14T06:56:04.204Z,173.30
2022-09-14T06:57:40.977Z,182.16
2022-09-14T06:58:22.162Z,152.62
2022-09-14T06:59:51.794Z,183.15
2022-09-14T07:00:37.295Z,172.32
2022-09-14T07:01:18.231Z,167.39
2022-09-14T07:02:55.583Z,154.59
2022-09-14T07:03:33.656Z,143.76
2022-09-14T07:04:31.532Z,157.55
2022-09-14T07:05:07.438Z,147.70
2022-09-14T07:05:50.683Z,169.36
2022-09-14T07:08:12.052Z,160.50
2022-09-14T07:09:01.281Z,151.64
2022-09-14T07:09:39.743Z,170.35
2022-09-14T07:10:21.869Z,176.26
2022-09-14T07:11:09.834Z,172.32
2022-09-14T07:12:42.293Z,155.58
2022-09-14T07:14:05.621Z,179.21
2022-09-14T07:14:55.183Z,191.03
2022-09-14T07:16:21.281Z,196.93
2022-09-14T07:17:06.675Z,181.18
2022-09-14T07:18:49.707Z,175.27
2022-09-14T07:20:06.065Z,155.58
2022-09-14T07:20:49.598Z,176.26
2022-09-14T07:21:45.421Z,181.18
2022-09-14T07:22:25.216Z,173.30
2022-09-14T07:23:57.066Z,180.20
2022-09-14T07:25:27.504Z,169.36
2022-09-14T07:26:11.944Z,154.59
2022-09-14T07:27:35.911Z,168.38
2022-09-14T07:28:42.846Z,174.29
2022-09-14T07:29:11.693Z,178.23
2022-09-14T07:29:52.771Z,165.43
2022-09-14T07:30:39.775Z,158.53
2022-09-14T07:31:38.208Z,156.56
2022-09-14T07:32:12.280Z,161.49
2022-09-14T07:32:54.529Z,188.07
2022-09-14T07:33:44.070Z,202.84
2022-09-14T07:35:10.060Z,177.24
2022-09-14T07:35:59.730Z,192.01
2022-09-14T07:36:43.428Z,179.21
2022-09-14T07:37:28.921Z,203.83
2022-09-14T07:38:09.847Z,166.41
2022-09-14T07:38:56.499Z,180.20
2022-09-14T07:41:26.513Z,174.29
2022-09-14T07:42:08.181Z,160.50
2022-09-14T07:42:39.920Z,187.09
2022-09-14T07:43:21.207Z,163.46
2022-09-14T07:44:11.659Z,168.38
2022-09-14T07:44:52.546Z,192.01
2022-09-14T07:45:41.157Z,181.18
2022-09-14T07:46:26.338Z,193.98
2022-09-14T07:47:58.282Z,203.83
2022-09-14T07:48:41.278Z,196.93
2022-09-14T07:49:28.902Z,194.97
2022-09-14T07:50:07.557Z,188.07
2022-09-14T07:50:55.328Z,195.95
2022-09-14T07:51:46.189Z,174.29
2022-09-14T07:52:26.391Z,198.90
2022-09-14T07:53:15.582Z,202.84
2022-09-14T07:54:00.269Z,192.01
2022-09-14T07:54:51.564Z,179.21
2022-09-14T07:55:30.593Z,172.32
2022-09-14T07:56:53.012Z,146.72
2022-09-14T07:57:55.623Z,185.12
2022-09-14T07:58:23.994Z,189.06
2022-09-14T07:59:35.023Z,188.07
2022-09-14T07:59:57.359Z,209.74
2022-09-14T08:00:39.493Z,186.10
2022-09-14T08:01:42.770Z,182.16
2022-09-14T08:02:52.297Z,188.07
2022-09-14T08:03:38.793Z,187.09
2022-09-14T08:04:23.657Z,170.35
2022-09-14T08:05:16.217Z,209.74
2022-09-14T08:05:52.324Z,168.38
2022-09-14T08:06:39.584Z,179.21
2022-09-14T08:07:32.063Z,173.30
2022-09-14T08:08:10.005Z,185.12
2022-09-14T08:08:54.698Z,173.30
2022-09-14T08:09:38.155Z,174.29
2022-09-14T08:10:24.661Z,186.10
2022-09-14T08:11:26.196Z,157.55
2022-09-14T08:11:53.247Z,164.44
2022-09-14T08:12:42.707Z,157.55
2022-09-14T08:13:27.094Z,165.43
2022-09-14T08:14:16.421Z,164.44
2022-09-14T08:14:55.528Z,163.46
2022-09-14T08:15:39.252Z,153.61
2022-09-14T08:16:38.552Z,178.23
2022-09-14T08:17:12.374Z,182.16
2022-09-14T08:17:56.635Z,185.12
2022-09-14T08:18:40.316Z,173.30
2022-09-14T08:19:28.507Z,185.12
2022-09-14T08:20:09.756Z,161.49
2022-09-14T08:21:05.222Z,190.04
2022-09-14T08:21:46.446Z,169.36
2022-09-14T08:22:25.439Z,207.77
2022-09-14T08:23:10.933Z,184.13
2022-09-14T08:23:55.966Z,212.69
2022-09-14T08:24:41.647Z,199.89
2022-09-14T08:25:29.219Z,199.89
2022-09-14T08:26:16.262Z,206.78
2022-09-14T08:26:58.727Z,208.75
2022-09-14T08:28:29.787Z,179.21
2022-09-14T08:30:07.344Z,214.66
2022-09-14T08:31:13.367Z,193.98
2022-09-14T08:31:25.255Z,193.98
2022-09-14T08:32:09.416Z,201.86
2022-09-14T08:33:40.470Z,207.77
2022-09-14T08:34:31.229Z,208.75
2022-09-14T08:35:17.586Z,209.74
2022-09-14T08:35:58.414Z,204.81
2022-09-14T08:36:46.951Z,218.60
2022-09-14T08:37:24.723Z,212.69
2022-09-14T08:38:10.936Z,207.77
2022-09-14T08:39:07.540Z,204.81
2022-09-14T08:39:49.550Z,205.80
2022-09-14T08:40:26.362Z,204.81
2022-09-14T08:41:21.789Z,187.09
2022-09-14T08:42:03.157Z,205.80
2022-09-14T08:42:41.329Z,194.97
2022-09-14T08:43:29.735Z,212.69
2022-09-14T08:44:10.982Z,183.15
2022-09-14T08:45:06.237Z,182.16
2022-09-14T08:45:49.752Z,191.03
2022-09-14T08:46:27.664Z,171.65
2022-09-14T08:47:39.758Z,171.65
2022-09-14T08:47:56.683Z,169.68
2022-09-14T08:48:46.442Z,169.68
2022-09-14T08:49:31.733Z,182.16
2022-09-14T08:50:11.118Z,181.18
2022-09-14T08:50:57.341Z,168.38
2022-09-14T08:51:45.038Z,177.24
2022-09-14T08:52:41.139Z,183.49
2022-09-14T08:53:18.760Z,185.12
2022-09-14T08:53:55.823Z,209.74
2022-09-14T08:54:43.672Z,216.63
2022-09-14T08:55:29.848Z,218.02
2022-09-14T08:56:18.927Z,200.26
2022-09-14T08:57:00.359Z,227.88
2022-09-14T08:57:41.844Z,235.78
2022-09-14T08:59:15.766Z,206.18
2022-09-14T09:00:03.309Z,207.17
2022-09-14T09:00:54.179Z,217.03
2022-09-14T09:01:28.504Z,221.96
2022-09-14T09:02:13.669Z,236.76
2022-09-14T09:03:02.176Z,233.80
2022-09-14T09:03:49.184Z,212.10
2022-09-14T09:04:28.001Z,203.22
2022-09-14T09:05:14.519Z,214.07
2022-09-14T09:06:04.043Z,195.33
2022-09-14T09:06:41.665Z,203.22
2022-09-14T09:07:26.686Z,212.10
2022-09-14T09:08:17.881Z,223.94
2022-09-14T09:08:58.988Z,208.15
2022-09-14T09:09:46.866Z,198.29
2022-09-14T09:10:31.903Z,229.86
2022-09-14T09:11:15.279Z,199.27
2022-09-14T09:11:57.797Z,208.15
2022-09-14T09:12:47.215Z,216.05
2022-09-14T09:13:27.851Z,202.23
2022-09-14T09:14:20.595Z,196.32
2022-09-14T09:15:02.671Z,205.19
2022-09-14T09:15:42.141Z,213.09
2022-09-14T09:16:45.451Z,219.99
2022-09-14T09:17:17.440Z,206.18
2022-09-14T09:17:58.694Z,222.95
2022-09-14T09:18:48.771Z,227.88
2022-09-14T09:19:28.838Z,234.79
2022-09-14T09:20:14.924Z,197.30
2022-09-14T09:20:58.210Z,213.09
2022-09-14T09:21:46.032Z,219.00
2022-09-14T09:22:27.873Z,245.64
2022-09-14T09:23:13.954Z,203.22
2022-09-14T09:24:01.636Z,193.36
2022-09-14T09:24:44.104Z,214.07
2022-09-14T09:25:35.503Z,227.88
2022-09-14T09:26:19.999Z,232.82
2022-09-14T09:27:00.169Z,198.29
2022-09-14T09:27:43.612Z,238.73
2022-09-14T09:28:28.680Z,233.80
2022-09-14T09:29:14.475Z,206.18
2022-09-14T09:30:01.650Z,223.94
2022-09-14T09:30:42.002Z,222.95
2022-09-14T09:31:41.845Z,229.86
2022-09-14T09:32:14.741Z,217.03
2022-09-14T09:32:56.852Z,231.83
2022-09-14T09:33:43.526Z,232.82
2022-09-14T09:34:34.679Z,217.03
2022-09-14T09:35:12.128Z,263.40
2022-09-14T09:35:57.241Z,212.10
2022-09-14T09:36:43.650Z,224.92
2022-09-14T09:37:28.320Z,212.10
2022-09-14T09:38:14.632Z,204.21
2022-09-14T09:39:01.710Z,184.48
2022-09-14T09:39:49.570Z,194.34
2022-09-14T09:40:32.033Z,185.46
2022-09-14T09:41:19.028Z,191.38
2022-09-14T09:41:59.610Z,191.38
2022-09-14T09:42:42.586Z,173.63
2022-09-14T09:43:47.821Z,178.56
2022-09-14T09:44:14.663Z,199.27
2022-09-14T09:45:02.166Z,180.53
2022-09-14T09:45:44.351Z,170.67
2022-09-14T09:46:27.845Z,191.38
2022-09-14T09:47:13.811Z,169.68
2022-09-14T09:47:57.989Z,157.84
2022-09-14T09:48:45.498Z,204.21
2022-09-14T09:49:29.399Z,216.05
2022-09-14T09:50:13.851Z,201.25
2022-09-14T09:50:57.794Z,192.37
2022-09-14T09:51:43.064Z,191.38